sensor_id;sensor_type;location;lat;lon;timestamp;P1;durP1;ratioP1;P2;durP2;ratioP2
1276;SDS011;631;51.024;13.826;2023-08-24T00:01:28;19.00;;;17.90;;
1276;SDS011;631;51.024;13.826;2023-08-24T00:03:53;19.63;;;18.43;;
1276;SDS011;631;51.024;13.826;2023-08-24T00:06:19;19.73;;;18.40;;
1276;SDS011;631;51.024;13.826;2023-08-24T00:08:44;18.27;;;17.17;;
1276;SDS011;631;51.024;13.826;2023-08-24T00:11:10;19.77;;;18.47;;
1276;SDS011;631;51.024;13.826;2023-08-24T00:13:40;20.47;;;19.17;;
1276;SDS011;631;51.024;13.826;2023-08-24T00:16:17;19.13;;;18.03;;
1276;SDS011;631;51.024;13.826;2023-08-24T00:18:44;19.93;;;18.43;;
1276;SDS011;631;51.024;13.826;2023-08-24T00:21:10;19.57;;;18.37;;
1276;SDS011;631;51.024;13.826;2023-08-24T00:23:36;20.40;;;18.90;;
1276;SDS011;631;51.024;13.826;2023-08-24T00:26:02;19.90;;;18.63;;
1276;SDS011;631;51.024;13.826;2023-08-24T00:28:28;20.33;;;19.03;;
1276;SDS011;631;51.024;13.826;2023-08-24T00:30:53;19.97;;;18.77;;
1276;SDS011;631;51.024;13.826;2023-08-24T00:33:19;20.50;;;19.00;;
1276;SDS011;631;51.024;13.826;2023-08-24T00:35:44;21.90;;;20.27;;
1276;SDS011;631;51.024;13.826;2023-08-24T00:38:10;19.73;;;18.60;;
1276;SDS011;631;51.024;13.826;2023-08-24T00:40:36;20.50;;;19.20;;
1276;SDS011;631;51.024;13.826;2023-08-24T00:43:01;19.70;;;18.50;;
1276;SDS011;631;51.024;13.826;2023-08-24T00:45:27;20.73;;;19.33;;
1276;SDS011;631;51.024;13.826;2023-08-24T00:47:54;21.00;;;19.67;;
1276;SDS011;631;51.024;13.826;2023-08-24T00:50:20;20.07;;;18.80;;
1276;SDS011;631;51.024;13.826;2023-08-24T00:52:46;20.50;;;19.20;;
1276;SDS011;631;51.024;13.826;2023-08-24T00:55:13;21.00;;;19.60;;
1276;SDS011;631;51.024;13.826;2023-08-24T00:57:40;20.50;;;19.20;;
1276;SDS011;631;51.024;13.826;2023-08-24T01:00:07;21.00;;;19.60;;
1276;SDS011;631;51.024;13.826;2023-08-24T01:02:39;20.93;;;19.63;;
1276;SDS011;631;51.024;13.826;2023-08-24T01:05:05;21.37;;;20.07;;
1276;SDS011;631;51.024;13.826;2023-08-24T01:07:32;20.93;;;19.53;;
1276;SDS011;631;51.024;13.826;2023-08-24T01:10:00;20.87;;;19.57;;
1276;SDS011;631;51.024;13.826;2023-08-24T01:15:13;21.00;;;19.70;;
1276;SDS011;631;51.024;13.826;2023-08-24T01:17:43;21.00;;;19.63;;
1276;SDS011;631;51.024;13.826;2023-08-24T01:20:10;21.10;;;19.60;;
1276;SDS011;631;51.024;13.826;2023-08-24T01:22:58;20.93;;;19.53;;
1276;SDS011;631;51.024;13.826;2023-08-24T01:25:49;20.87;;;19.47;;
1276;SDS011;631;51.024;13.826;2023-08-24T01:28:28;21.77;;;20.10;;
1276;SDS011;631;51.024;13.826;2023-08-24T01:30:55;21.80;;;20.20;;
1276;SDS011;631;51.024;13.826;2023-08-24T01:33:21;21.40;;;19.93;;
1276;SDS011;631;51.024;13.826;2023-08-24T01:35:46;22.67;;;21.10;;
1276;SDS011;631;51.024;13.826;2023-08-24T01:38:12;20.80;;;19.50;;
1276;SDS011;631;51.024;13.826;2023-08-24T01:43:30;21.30;;;19.70;;
1276;SDS011;631;51.024;13.826;2023-08-24T01:45:59;21.90;;;20.40;;
1276;SDS011;631;51.024;13.826;2023-08-24T01:48:28;21.07;;;19.70;;
1276;SDS011;631;51.024;13.826;2023-08-24T01:50:55;20.70;;;19.40;;
1276;SDS011;631;51.024;13.826;2023-08-24T01:53:25;21.63;;;20.23;;
1276;SDS011;631;51.024;13.826;2023-08-24T01:55:52;22.50;;;20.60;;
1276;SDS011;631;51.024;13.826;2023-08-24T01:58:18;23.80;;;22.10;;
1276;SDS011;631;51.024;13.826;2023-08-24T02:00:45;23.30;;;21.60;;
1276;SDS011;631;51.024;13.826;2023-08-24T02:03:11;22.57;;;21.10;;
1276;SDS011;631;51.024;13.826;2023-08-24T02:05:36;22.93;;;21.23;;
1276;SDS011;631;51.024;13.826;2023-08-24T02:08:03;21.57;;;20.17;;
1276;SDS011;631;51.024;13.826;2023-08-24T02:10:29;23.20;;;21.50;;
1276;SDS011;631;51.024;13.826;2023-08-24T02:12:54;22.40;;;20.90;;
1276;SDS011;631;51.024;13.826;2023-08-24T02:15:20;23.03;;;21.27;;
1276;SDS011;631;51.024;13.826;2023-08-24T02:17:46;22.43;;;20.93;;
1276;SDS011;631;51.024;13.826;2023-08-24T02:20:11;22.43;;;20.93;;
1276;SDS011;631;51.024;13.826;2023-08-24T02:22:37;21.20;;;19.90;;
1276;SDS011;631;51.024;13.826;2023-08-24T02:25:04;22.33;;;20.93;;
1276;SDS011;631;51.024;13.826;2023-08-24T02:27:31;22.63;;;21.07;;
1276;SDS011;631;51.024;13.826;2023-08-24T02:29:58;22.27;;;20.90;;
1276;SDS011;631;51.024;13.826;2023-08-24T02:32:24;22.83;;;21.13;;
1276;SDS011;631;51.024;13.826;2023-08-24T02:34:51;21.83;;;20.50;;
1276;SDS011;631;51.024;13.826;2023-08-24T02:37:16;23.80;;;22.00;;
1276;SDS011;631;51.024;13.826;2023-08-24T02:39:42;22.37;;;20.87;;
1276;SDS011;631;51.024;13.826;2023-08-24T02:42:07;22.90;;;21.13;;
1276;SDS011;631;51.024;13.826;2023-08-24T02:44:33;23.33;;;21.80;;
1276;SDS011;631;51.024;13.826;2023-08-24T02:47:01;23.93;;;22.03;;
1276;SDS011;631;51.024;13.826;2023-08-24T02:49:26;22.27;;;20.70;;
1276;SDS011;631;51.024;13.826;2023-08-24T02:51:53;23.23;;;21.63;;
1276;SDS011;631;51.024;13.826;2023-08-24T02:54:19;22.50;;;20.90;;
1276;SDS011;631;51.024;13.826;2023-08-24T02:56:45;22.83;;;21.33;;
1276;SDS011;631;51.024;13.826;2023-08-24T02:59:10;22.87;;;21.17;;
1276;SDS011;631;51.024;13.826;2023-08-24T03:01:37;22.90;;;21.27;;
1276;SDS011;631;51.024;13.826;2023-08-24T03:04:05;23.80;;;22.20;;
1276;SDS011;631;51.024;13.826;2023-08-24T03:06:31;22.40;;;20.90;;
1276;SDS011;631;51.024;13.826;2023-08-24T03:08:57;23.83;;;22.13;;
1276;SDS011;631;51.024;13.826;2023-08-24T03:11:24;22.60;;;20.90;;
1276;SDS011;631;51.024;13.826;2023-08-24T03:13:50;24.67;;;22.90;;
1276;SDS011;631;51.024;13.826;2023-08-24T03:16:15;22.80;;;21.30;;
1276;SDS011;631;51.024;13.826;2023-08-24T03:18:41;22.83;;;21.33;;
1276;SDS011;631;51.024;13.826;2023-08-24T03:21:06;23.70;;;22.00;;
1276;SDS011;631;51.024;13.826;2023-08-24T03:23:32;23.77;;;22.17;;
1276;SDS011;631;51.024;13.826;2023-08-24T03:25:58;24.50;;;22.80;;
1276;SDS011;631;51.024;13.826;2023-08-24T03:28:23;22.43;;;20.93;;
1276;SDS011;631;51.024;13.826;2023-08-24T03:30:52;23.37;;;21.77;;
1276;SDS011;631;51.024;13.826;2023-08-24T03:33:20;23.97;;;22.27;;
1276;SDS011;631;51.024;13.826;2023-08-24T03:35:46;23.37;;;21.77;;
1276;SDS011;631;51.024;13.826;2023-08-24T03:38:12;23.90;;;22.20;;
1276;SDS011;631;51.024;13.826;2023-08-24T03:40:38;23.77;;;22.20;;
1276;SDS011;631;51.024;13.826;2023-08-24T03:43:03;24.90;;;23.07;;
1276;SDS011;631;51.024;13.826;2023-08-24T03:45:29;23.83;;;22.17;;
1276;SDS011;631;51.024;13.826;2023-08-24T03:47:55;24.13;;;22.33;;
1276;SDS011;631;51.024;13.826;2023-08-24T03:50:21;24.07;;;22.37;;
1276;SDS011;631;51.024;13.826;2023-08-24T03:52:47;24.70;;;22.90;;
1276;SDS011;631;51.024;13.826;2023-08-24T03:55:15;23.80;;;22.20;;
1276;SDS011;631;51.024;13.826;2023-08-24T03:57:41;23.20;;;21.67;;
1276;SDS011;631;51.024;13.826;2023-08-24T04:00:07;23.73;;;22.13;;
1276;SDS011;631;51.024;13.826;2023-08-24T04:02:37;23.60;;;21.83;;
1276;SDS011;631;51.024;13.826;2023-08-24T04:05:06;24.27;;;22.33;;
1276;SDS011;631;51.024;13.826;2023-08-24T04:07:32;23.50;;;21.87;;
1276;SDS011;631;51.024;13.826;2023-08-24T04:10:01;23.97;;;22.37;;
1276;SDS011;631;51.024;13.826;2023-08-24T04:12:28;23.43;;;21.83;;
1276;SDS011;631;51.024;13.826;2023-08-24T04:14:53;23.07;;;21.47;;
1276;SDS011;631;51.024;13.826;2023-08-24T04:17:21;24.00;;;22.30;;
1276;SDS011;631;51.024;13.826;2023-08-24T04:19:46;22.50;;;20.97;;
1276;SDS011;631;51.024;13.826;2023-08-24T04:22:12;22.80;;;21.20;;
1276;SDS011;631;51.024;13.826;2023-08-24T04:24:38;23.07;;;21.43;;
1276;SDS011;631;51.024;13.826;2023-08-24T04:27:03;23.47;;;21.87;;
1276;SDS011;631;51.024;13.826;2023-08-24T04:29:29;23.40;;;21.67;;
1276;SDS011;631;51.024;13.826;2023-08-24T04:31:56;26.47;;;24.67;;
1276;SDS011;631;51.024;13.826;2023-08-24T04:34:21;24.27;;;22.40;;
1276;SDS011;631;51.024;13.826;2023-08-24T04:36:47;24.20;;;22.47;;
1276;SDS011;631;51.024;13.826;2023-08-24T04:39:12;22.77;;;21.27;;
1276;SDS011;631;51.024;13.826;2023-08-24T04:41:38;23.80;;;22.10;;
1276;SDS011;631;51.024;13.826;2023-08-24T04:44:04;23.47;;;21.87;;
1276;SDS011;631;51.024;13.826;2023-08-24T04:46:29;24.03;;;22.33;;
1276;SDS011;631;51.024;13.826;2023-08-24T04:48:55;23.00;;;21.30;;
1276;SDS011;631;51.024;13.826;2023-08-24T04:51:21;24.37;;;22.53;;
1276;SDS011;631;51.024;13.826;2023-08-24T04:53:46;23.47;;;21.83;;
1276;SDS011;631;51.024;13.826;2023-08-24T04:56:12;22.80;;;21.30;;
1276;SDS011;631;51.024;13.826;2023-08-24T04:58:37;25.43;;;23.27;;
1276;SDS011;631;51.024;13.826;2023-08-24T05:01:03;23.57;;;21.87;;
1276;SDS011;631;51.024;13.826;2023-08-24T05:03:28;23.90;;;22.20;;
1276;SDS011;631;51.024;13.826;2023-08-24T05:05:54;23.13;;;21.43;;
1276;SDS011;631;51.024;13.826;2023-08-24T05:08:20;23.77;;;22.10;;
1276;SDS011;631;51.024;13.826;2023-08-24T05:10:45;23.27;;;21.60;;
1276;SDS011;631;51.024;13.826;2023-08-24T05:13:11;23.73;;;21.73;;
1276;SDS011;631;51.024;13.826;2023-08-24T05:15:37;24.13;;;22.43;;
1276;SDS011;631;51.024;13.826;2023-08-24T05:18:02;22.87;;;21.27;;
1276;SDS011;631;51.024;13.826;2023-08-24T05:20:28;24.67;;;22.70;;
1276;SDS011;631;51.024;13.826;2023-08-24T05:22:54;24.03;;;22.43;;
1276;SDS011;631;51.024;13.826;2023-08-24T05:25:20;23.27;;;21.23;;
1276;SDS011;631;51.024;13.826;2023-08-24T05:27:46;25.50;;;22.90;;
1276;SDS011;631;51.024;13.826;2023-08-24T05:30:12;23.10;;;21.50;;
1276;SDS011;631;51.024;13.826;2023-08-24T05:32:38;22.33;;;20.83;;
1276;SDS011;631;51.024;13.826;2023-08-24T05:35:04;24.00;;;22.30;;
1276;SDS011;631;51.024;13.826;2023-08-24T05:37:30;23.17;;;21.60;;
1276;SDS011;631;51.024;13.826;2023-08-24T05:39:56;21.40;;;20.00;;
1276;SDS011;631;51.024;13.826;2023-08-24T05:42:21;23.87;;;22.00;;
1276;SDS011;631;51.024;13.826;2023-08-24T05:44:47;23.30;;;21.70;;
1276;SDS011;631;51.024;13.826;2023-08-24T05:47:12;22.47;;;20.77;;
1276;SDS011;631;51.024;13.826;2023-08-24T05:49:38;21.87;;;20.37;;
1276;SDS011;631;51.024;13.826;2023-08-24T05:52:03;22.30;;;20.90;;
1276;SDS011;631;51.024;13.826;2023-08-24T05:54:29;22.30;;;20.80;;
1276;SDS011;631;51.024;13.826;2023-08-24T05:56:55;21.40;;;20.07;;
1276;SDS011;631;51.024;13.826;2023-08-24T05:59:25;21.67;;;20.27;;
1276;SDS011;631;51.024;13.826;2023-08-24T06:01:51;20.90;;;19.53;;
1276;SDS011;631;51.024;13.826;2023-08-24T06:04:16;21.30;;;19.90;;
1276;SDS011;631;51.024;13.826;2023-08-24T06:06:42;20.67;;;19.27;;
1276;SDS011;631;51.024;13.826;2023-08-24T06:09:07;21.10;;;19.77;;
1276;SDS011;631;51.024;13.826;2023-08-24T06:11:33;21.60;;;20.23;;
1276;SDS011;631;51.024;13.826;2023-08-24T06:13:58;22.60;;;21.20;;
1276;SDS011;631;51.024;13.826;2023-08-24T06:16:24;21.73;;;20.33;;
1276;SDS011;631;51.024;13.826;2023-08-24T06:18:50;22.30;;;20.87;;
1276;SDS011;631;51.024;13.826;2023-08-24T06:21:16;21.10;;;19.80;;
1276;SDS011;631;51.024;13.826;2023-08-24T06:23:42;20.70;;;19.30;;
1276;SDS011;631;51.024;13.826;2023-08-24T06:26:09;21.60;;;20.20;;
1276;SDS011;631;51.024;13.826;2023-08-24T06:28:34;20.30;;;19.10;;
1276;SDS011;631;51.024;13.826;2023-08-24T06:31:00;21.63;;;20.23;;
1276;SDS011;631;51.024;13.826;2023-08-24T06:33:33;20.17;;;18.87;;
1276;SDS011;631;51.024;13.826;2023-08-24T06:35:59;21.23;;;19.83;;
1276;SDS011;631;51.024;13.826;2023-08-24T06:38:26;20.13;;;18.93;;
1276;SDS011;631;51.024;13.826;2023-08-24T06:40:51;20.10;;;18.90;;
1276;SDS011;631;51.024;13.826;2023-08-24T06:43:17;20.30;;;19.10;;
1276;SDS011;631;51.024;13.826;2023-08-24T06:45:46;20.80;;;19.57;;
1276;SDS011;631;51.024;13.826;2023-08-24T06:48:11;20.10;;;18.90;;
1276;SDS011;631;51.024;13.826;2023-08-24T06:50:37;21.00;;;19.50;;
1276;SDS011;631;51.024;13.826;2023-08-24T06:53:03;20.97;;;19.60;;
1276;SDS011;631;51.024;13.826;2023-08-24T06:55:29;20.97;;;19.57;;
1276;SDS011;631;51.024;13.826;2023-08-24T06:57:55;19.47;;;18.37;;
1276;SDS011;631;51.024;13.826;2023-08-24T07:00:21;19.37;;;18.17;;
1276;SDS011;631;51.024;13.826;2023-08-24T07:02:48;20.00;;;18.60;;
1276;SDS011;631;51.024;13.826;2023-08-24T07:05:16;21.07;;;19.57;;
1276;SDS011;631;51.024;13.826;2023-08-24T07:07:45;19.67;;;18.47;;
1276;SDS011;631;51.024;13.826;2023-08-24T07:10:12;19.37;;;18.23;;
1276;SDS011;631;51.024;13.826;2023-08-24T07:12:38;20.07;;;18.87;;
1276;SDS011;631;51.024;13.826;2023-08-24T07:15:06;19.40;;;18.20;;
1276;SDS011;631;51.024;13.826;2023-08-24T07:17:32;19.30;;;18.10;;
1276;SDS011;631;51.024;13.826;2023-08-24T07:19:58;19.10;;;17.80;;
1276;SDS011;631;51.024;13.826;2023-08-24T07:22:23;19.30;;;18.10;;
1276;SDS011;631;51.024;13.826;2023-08-24T07:24:51;19.40;;;18.17;;
1276;SDS011;631;51.024;13.826;2023-08-24T07:27:17;19.77;;;18.57;;
1276;SDS011;631;51.024;13.826;2023-08-24T07:29:43;18.47;;;17.37;;
1276;SDS011;631;51.024;13.826;2023-08-24T07:32:09;18.20;;;17.00;;
1276;SDS011;631;51.024;13.826;2023-08-24T07:34:35;19.37;;;18.20;;
1276;SDS011;631;51.024;13.826;2023-08-24T07:37:00;19.50;;;18.40;;
1276;SDS011;631;51.024;13.826;2023-08-24T07:39:26;18.50;;;17.50;;
1276;SDS011;631;51.024;13.826;2023-08-24T07:41:52;18.23;;;17.23;;
1276;SDS011;631;51.024;13.826;2023-08-24T07:44:18;18.70;;;17.60;;
1276;SDS011;631;51.024;13.826;2023-08-24T07:46:43;17.93;;;16.93;;
1276;SDS011;631;51.024;13.826;2023-08-24T07:49:09;18.43;;;17.33;;
1276;SDS011;631;51.024;13.826;2023-08-24T07:51:35;18.30;;;17.20;;
1276;SDS011;631;51.024;13.826;2023-08-24T07:54:01;18.27;;;17.27;;
1276;SDS011;631;51.024;13.826;2023-08-24T07:56:29;17.60;;;16.20;;
1276;SDS011;631;51.024;13.826;2023-08-24T07:58:55;17.90;;;16.47;;
1276;SDS011;631;51.024;13.826;2023-08-24T08:01:21;17.53;;;16.40;;
1276;SDS011;631;51.024;13.826;2023-08-24T08:03:46;17.60;;;16.50;;
1276;SDS011;631;51.024;13.826;2023-08-24T08:06:12;17.00;;;16.10;;
1276;SDS011;631;51.024;13.826;2023-08-24T08:08:38;17.60;;;16.37;;
1276;SDS011;631;51.024;13.826;2023-08-24T08:11:04;17.87;;;16.80;;
1276;SDS011;631;51.024;13.826;2023-08-24T08:13:30;17.87;;;16.57;;
1276;SDS011;631;51.024;13.826;2023-08-24T08:16:05;18.47;;;17.27;;
1276;SDS011;631;51.024;13.826;2023-08-24T08:18:32;17.20;;;16.20;;
1276;SDS011;631;51.024;13.826;2023-08-24T08:20:58;16.20;;;15.40;;
1276;SDS011;631;51.024;13.826;2023-08-24T08:23:24;17.50;;;16.40;;
1276;SDS011;631;51.024;13.826;2023-08-24T08:25:50;16.87;;;15.97;;
1276;SDS011;631;51.024;13.826;2023-08-24T08:28:16;18.43;;;17.43;;
1276;SDS011;631;51.024;13.826;2023-08-24T08:30:47;17.60;;;16.30;;
1276;SDS011;631;51.024;13.826;2023-08-24T08:33:14;16.83;;;15.93;;
1276;SDS011;631;51.024;13.826;2023-08-24T08:35:41;16.60;;;15.57;;
1276;SDS011;631;51.024;13.826;2023-08-24T08:38:07;16.33;;;15.40;;
1276;SDS011;631;51.024;13.826;2023-08-24T08:40:32;16.50;;;15.60;;
1276;SDS011;631;51.024;13.826;2023-08-24T08:43:02;19.27;;;17.97;;
1276;SDS011;631;51.024;13.826;2023-08-24T08:45:28;16.97;;;16.07;;
1276;SDS011;631;51.024;13.826;2023-08-24T08:47:57;17.00;;;16.20;;
1276;SDS011;631;51.024;13.826;2023-08-24T08:50:25;16.83;;;16.03;;
1276;SDS011;631;51.024;13.826;2023-08-24T08:52:51;15.30;;;14.40;;
1276;SDS011;631;51.024;13.826;2023-08-24T08:55:17;14.00;;;13.30;;
1276;SDS011;631;51.024;13.826;2023-08-24T08:57:44;15.20;;;14.30;;
1276;SDS011;631;51.024;13.826;2023-08-24T09:00:13;13.87;;;13.17;;
1276;SDS011;631;51.024;13.826;2023-08-24T09:02:42;13.87;;;13.27;;
1276;SDS011;631;51.024;13.826;2023-08-24T09:05:10;14.50;;;13.60;;
1276;SDS011;631;51.024;13.826;2023-08-24T09:07:39;15.17;;;14.37;;
1276;SDS011;631;51.024;13.826;2023-08-24T09:10:05;14.70;;;14.00;;
1276;SDS011;631;51.024;13.826;2023-08-24T09:12:32;13.30;;;12.70;;
1276;SDS011;631;51.024;13.826;2023-08-24T09:14:58;14.30;;;13.50;;
1276;SDS011;631;51.024;13.826;2023-08-24T09:17:24;14.33;;;13.63;;
1276;SDS011;631;51.024;13.826;2023-08-24T09:19:50;14.07;;;13.37;;
1276;SDS011;631;51.024;13.826;2023-08-24T09:22:19;14.40;;;13.70;;
1276;SDS011;631;51.024;13.826;2023-08-24T09:24:45;13.70;;;13.10;;
1276;SDS011;631;51.024;13.826;2023-08-24T09:27:15;13.17;;;12.57;;
1276;SDS011;631;51.024;13.826;2023-08-24T09:29:43;13.10;;;12.43;;
1276;SDS011;631;51.024;13.826;2023-08-24T09:32:12;13.93;;;13.33;;
1276;SDS011;631;51.024;13.826;2023-08-24T09:34:38;14.30;;;13.60;;
1276;SDS011;631;51.024;13.826;2023-08-24T09:37:04;13.27;;;12.67;;
1276;SDS011;631;51.024;13.826;2023-08-24T09:39:37;13.77;;;13.17;;
1276;SDS011;631;51.024;13.826;2023-08-24T09:42:02;12.40;;;11.87;;
1276;SDS011;631;51.024;13.826;2023-08-24T09:44:28;13.40;;;12.80;;
1276;SDS011;631;51.024;13.826;2023-08-24T09:46:54;13.83;;;13.13;;
1276;SDS011;631;51.024;13.826;2023-08-24T09:49:19;12.80;;;12.20;;
1276;SDS011;631;51.024;13.826;2023-08-24T09:51:46;12.93;;;12.33;;
1276;SDS011;631;51.024;13.826;2023-08-24T09:54:13;13.17;;;12.57;;
1276;SDS011;631;51.024;13.826;2023-08-24T09:56:42;12.67;;;12.10;;
1276;SDS011;631;51.024;13.826;2023-08-24T09:59:12;13.40;;;12.70;;
1276;SDS011;631;51.024;13.826;2023-08-24T10:01:47;13.10;;;12.50;;
1276;SDS011;631;51.024;13.826;2023-08-24T10:04:23;13.77;;;13.07;;
1276;SDS011;631;51.024;13.826;2023-08-24T10:07:06;13.67;;;13.07;;
1276;SDS011;631;51.024;13.826;2023-08-24T10:09:40;13.60;;;12.93;;
1276;SDS011;631;51.024;13.826;2023-08-24T10:12:12;13.87;;;13.03;;
1276;SDS011;631;51.024;13.826;2023-08-24T10:14:47;12.20;;;11.67;;
1276;SDS011;631;51.024;13.826;2023-08-24T10:17:24;13.73;;;13.03;;
1276;SDS011;631;51.024;13.826;2023-08-24T10:19:50;13.53;;;12.90;;
1276;SDS011;631;51.024;13.826;2023-08-24T10:22:19;14.20;;;13.30;;
1276;SDS011;631;51.024;13.826;2023-08-24T10:24:45;13.73;;;13.13;;
1276;SDS011;631;51.024;13.826;2023-08-24T10:27:13;13.43;;;12.83;;
1276;SDS011;631;51.024;13.826;2023-08-24T10:29:40;13.40;;;12.80;;
1276;SDS011;631;51.024;13.826;2023-08-24T10:32:05;12.77;;;12.17;;
1276;SDS011;631;51.024;13.826;2023-08-24T10:34:33;13.57;;;12.80;;
1276;SDS011;631;51.024;13.826;2023-08-24T10:37:08;13.10;;;12.50;;
1276;SDS011;631;51.024;13.826;2023-08-24T10:39:35;13.03;;;12.43;;
1276;SDS011;631;51.024;13.826;2023-08-24T10:42:03;14.10;;;13.50;;
1276;SDS011;631;51.024;13.826;2023-08-24T10:44:35;13.40;;;12.80;;
1276;SDS011;631;51.024;13.826;2023-08-24T10:47:12;13.67;;;12.97;;
1276;SDS011;631;51.024;13.826;2023-08-24T10:49:43;13.60;;;12.80;;
1276;SDS011;631;51.024;13.826;2023-08-24T10:52:23;14.07;;;13.10;;
1276;SDS011;631;51.024;13.826;2023-08-24T10:54:50;13.10;;;12.50;;
1276;SDS011;631;51.024;13.826;2023-08-24T10:57:21;13.17;;;12.57;;
1276;SDS011;631;51.024;13.826;2023-08-24T11:02:30;13.57;;;12.97;;
1276;SDS011;631;51.024;13.826;2023-08-24T11:05:20;14.23;;;13.33;;
1276;SDS011;631;51.024;13.826;2023-08-24T11:10:46;13.90;;;13.00;;
1276;SDS011;631;51.024;13.826;2023-08-24T11:13:18;14.20;;;13.50;;
1276;SDS011;631;51.024;13.826;2023-08-24T11:15:47;14.37;;;13.57;;
1276;SDS011;631;51.024;13.826;2023-08-24T11:18:27;13.17;;;12.57;;
1276;SDS011;631;51.024;13.826;2023-08-24T11:20:54;13.00;;;12.40;;
1276;SDS011;631;51.024;13.826;2023-08-24T11:23:22;14.30;;;13.60;;
1276;SDS011;631;51.024;13.826;2023-08-24T11:25:49;13.90;;;13.20;;
1276;SDS011;631;51.024;13.826;2023-08-24T11:28:20;13.30;;;12.70;;
1276;SDS011;631;51.024;13.826;2023-08-24T11:30:47;13.73;;;13.13;;
1276;SDS011;631;51.024;13.826;2023-08-24T11:33:13;12.93;;;12.33;;
1276;SDS011;631;51.024;13.826;2023-08-24T11:35:43;13.50;;;12.67;;
1276;SDS011;631;51.024;13.826;2023-08-24T11:38:09;13.10;;;12.50;;
1276;SDS011;631;51.024;13.826;2023-08-24T11:40:36;14.33;;;13.73;;
1276;SDS011;631;51.024;13.826;2023-08-24T11:43:02;13.30;;;12.60;;
1276;SDS011;631;51.024;13.826;2023-08-24T11:45:32;13.50;;;12.90;;
1276;SDS011;631;51.024;13.826;2023-08-24T11:47:58;13.37;;;12.63;;
1276;SDS011;631;51.024;13.826;2023-08-24T11:50:27;13.57;;;12.87;;
1276;SDS011;631;51.024;13.826;2023-08-24T11:52:53;12.70;;;12.03;;
1276;SDS011;631;51.024;13.826;2023-08-24T11:55:20;13.30;;;12.67;;
1276;SDS011;631;51.024;13.826;2023-08-24T11:57:49;13.37;;;12.70;;
1276;SDS011;631;51.024;13.826;2023-08-24T12:00:16;13.73;;;13.03;;
1276;SDS011;631;51.024;13.826;2023-08-24T12:02:44;12.20;;;11.50;;
1276;SDS011;631;51.024;13.826;2023-08-24T12:05:21;12.73;;;12.13;;
1276;SDS011;631;51.024;13.826;2023-08-24T12:07:47;14.53;;;13.77;;
1276;SDS011;631;51.024;13.826;2023-08-24T12:10:13;14.13;;;13.43;;
1276;SDS011;631;51.024;13.826;2023-08-24T12:12:39;14.20;;;13.50;;
1276;SDS011;631;51.024;13.826;2023-08-24T12:15:04;12.90;;;12.20;;
1276;SDS011;631;51.024;13.826;2023-08-24T12:17:30;13.70;;;12.90;;
1276;SDS011;631;51.024;13.826;2023-08-24T12:20:07;13.30;;;12.70;;
1276;SDS011;631;51.024;13.826;2023-08-24T12:22:40;13.37;;;12.57;;
1276;SDS011;631;51.024;13.826;2023-08-24T12:25:06;14.27;;;13.57;;
1276;SDS011;631;51.024;13.826;2023-08-24T12:27:32;14.30;;;13.57;;
1276;SDS011;631;51.024;13.826;2023-08-24T12:30:01;14.40;;;13.60;;
1276;SDS011;631;51.024;13.826;2023-08-24T12:32:30;13.77;;;13.07;;
1276;SDS011;631;51.024;13.826;2023-08-24T12:35:10;14.63;;;13.67;;
1276;SDS011;631;51.024;13.826;2023-08-24T12:37:37;14.50;;;13.80;;
1276;SDS011;631;51.024;13.826;2023-08-24T12:40:03;14.03;;;13.33;;
1276;SDS011;631;51.024;13.826;2023-08-24T12:42:31;13.33;;;12.70;;
1276;SDS011;631;51.024;13.826;2023-08-24T12:44:57;13.70;;;13.10;;
1276;SDS011;631;51.024;13.826;2023-08-24T12:47:23;15.20;;;14.30;;
1276;SDS011;631;51.024;13.826;2023-08-24T12:49:49;14.07;;;13.37;;
1276;SDS011;631;51.024;13.826;2023-08-24T12:52:16;14.03;;;13.30;;
1276;SDS011;631;51.024;13.826;2023-08-24T12:54:42;15.67;;;14.37;;
1276;SDS011;631;51.024;13.826;2023-08-24T12:57:08;14.00;;;13.40;;
1276;SDS011;631;51.024;13.826;2023-08-24T12:59:33;15.17;;;14.37;;
1276;SDS011;631;51.024;13.826;2023-08-24T13:01:59;14.90;;;14.17;;
1276;SDS011;631;51.024;13.826;2023-08-24T13:04:25;13.87;;;13.10;;
1276;SDS011;631;51.024;13.826;2023-08-24T13:06:51;14.60;;;13.90;;
1276;SDS011;631;51.024;13.826;2023-08-24T13:09:17;13.90;;;13.30;;
1276;SDS011;631;51.024;13.826;2023-08-24T13:11:43;15.13;;;14.33;;
1276;SDS011;631;51.024;13.826;2023-08-24T13:14:09;13.77;;;13.17;;
1276;SDS011;631;51.024;13.826;2023-08-24T13:16:34;14.30;;;13.60;;
1276;SDS011;631;51.024;13.826;2023-08-24T13:19:00;13.83;;;13.23;;
1276;SDS011;631;51.024;13.826;2023-08-24T13:21:25;14.30;;;13.60;;
1276;SDS011;631;51.024;13.826;2023-08-24T13:23:51;15.70;;;14.77;;
1276;SDS011;631;51.024;13.826;2023-08-24T13:26:20;14.77;;;14.07;;
1276;SDS011;631;51.024;13.826;2023-08-24T13:28:48;15.00;;;14.30;;
1276;SDS011;631;51.024;13.826;2023-08-24T13:31:14;14.33;;;13.27;;
1276;SDS011;631;51.024;13.826;2023-08-24T13:33:40;14.10;;;13.50;;
1276;SDS011;631;51.024;13.826;2023-08-24T13:36:05;13.97;;;13.10;;
1276;SDS011;631;51.024;13.826;2023-08-24T13:38:31;14.63;;;13.90;;
1276;SDS011;631;51.024;13.826;2023-08-24T13:40:57;13.60;;;13.00;;
1276;SDS011;631;51.024;13.826;2023-08-24T13:43:22;14.33;;;13.63;;
1276;SDS011;631;51.024;13.826;2023-08-24T13:45:48;15.50;;;14.47;;
1276;SDS011;631;51.024;13.826;2023-08-24T13:48:13;15.63;;;14.83;;
1276;SDS011;631;51.024;13.826;2023-08-24T13:50:41;14.77;;;14.00;;
1276;SDS011;631;51.024;13.826;2023-08-24T13:53:07;14.00;;;13.40;;
1276;SDS011;631;51.024;13.826;2023-08-24T13:55:32;15.73;;;14.70;;
1276;SDS011;631;51.024;13.826;2023-08-24T13:57:58;15.43;;;14.60;;
1276;SDS011;631;51.024;13.826;2023-08-24T14:00:24;14.73;;;14.03;;
1276;SDS011;631;51.024;13.826;2023-08-24T14:02:50;16.43;;;15.57;;
1276;SDS011;631;51.024;13.826;2023-08-24T14:05:16;15.73;;;14.93;;
1276;SDS011;631;51.024;13.826;2023-08-24T14:07:41;15.00;;;14.30;;
1276;SDS011;631;51.024;13.826;2023-08-24T14:10:07;15.50;;;14.80;;
1276;SDS011;631;51.024;13.826;2023-08-24T14:12:33;15.90;;;15.07;;
1276;SDS011;631;51.024;13.826;2023-08-24T14:14:59;15.97;;;15.27;;
1276;SDS011;631;51.024;13.826;2023-08-24T14:17:25;15.93;;;15.10;;
1276;SDS011;631;51.024;13.826;2023-08-24T14:19:50;16.50;;;15.70;;
1276;SDS011;631;51.024;13.826;2023-08-24T14:22:16;15.37;;;14.67;;
1276;SDS011;631;51.024;13.826;2023-08-24T14:24:42;15.63;;;14.73;;
1276;SDS011;631;51.024;13.826;2023-08-24T14:27:07;16.07;;;15.07;;
1276;SDS011;631;51.024;13.826;2023-08-24T14:29:33;15.10;;;14.40;;
1276;SDS011;631;51.024;13.826;2023-08-24T14:31:58;16.53;;;15.67;;
1276;SDS011;631;51.024;13.826;2023-08-24T14:34:24;15.10;;;14.30;;
1276;SDS011;631;51.024;13.826;2023-08-24T14:36:50;16.20;;;15.30;;
1276;SDS011;631;51.024;13.826;2023-08-24T14:39:15;16.90;;;15.90;;
1276;SDS011;631;51.024;13.826;2023-08-24T14:41:41;16.37;;;15.47;;
1276;SDS011;631;51.024;13.826;2023-08-24T14:44:07;15.33;;;14.60;;
1276;SDS011;631;51.024;13.826;2023-08-24T14:46:32;15.40;;;14.70;;
1276;SDS011;631;51.024;13.826;2023-08-24T14:48:58;15.70;;;14.90;;
1276;SDS011;631;51.024;13.826;2023-08-24T14:51:24;17.03;;;16.13;;
1276;SDS011;631;51.024;13.826;2023-08-24T14:53:50;16.90;;;15.90;;
1276;SDS011;631;51.024;13.826;2023-08-24T14:56:16;15.33;;;14.63;;
1276;SDS011;631;51.024;13.826;2023-08-24T14:58:41;16.20;;;15.40;;